Mount Wellington, Australia
Current Conditions -  °F | °C
As of 12:00 AM on Friday 28 Nov 2014 (Local Time) from YMHB Reporting Station
Broken Clouds Broken Clouds  
Wind Chill: 50°   Ceiling: 3700
Heat Index: 50°   Visibility: 6mi
Dew Point: 41°   Wind: 1mph
Humidity: 71%   Direction: 210°SSW
Pressure: 30.24"   Gusts: NA
Location:  42.88°S, 147.23°E
Report Text: YMHB 271300Z 21001KT 9999 BKN037 10/05 Q1024
Loading
Personal Weather Stations






























Interactive Weather Map New forecast layout! Learn more

10-Day Weather Forecast

Advertisements
Track Severe Weather on mobile